Logo AVAMET
Benvolgut visitant, si us plau, ingressa Recuperar contrasenya
AVAMET paisatges

Inforatge Calp

Dades diàries. Acumulats / Últims 30 dies disponibles

Data Temperatura (°C) Humitat rel. (%) Pressió rel. (hPa) Vent (km/h) Precipitació
Mínima Mitjana Màxima Amplitud
tèrmica
Mínima Mitjana Màxima Mínima Mitjana Màxima Predom. Mitjana Ràfega
màxima
Total
(mm)
Índex-n
Mínima Mitjana Màxima Mínima Mitjana Màxima n
0 a 1
P0 max
mm 5'
Dades mensuals acumulades fins l'últim dia disponible
04/2020 10,2 11,4 12,6 13,9 16,2 16,9 17,8 7,6 45 78 90 1.014 1.019 1.025   7,0 41,8 1,6
Dades anuals acumulades fins l'últim dia disponible
2020 6,9 11,3 16,3 14,1 11,2 17,2 24,8 17,9 20 71 96 1.007 1.026 1.039   8,1 98,2 199,2
Últims 30 dies disponibles
04-04-2020 10,2     13,9     16,5 6,3 71 76 82 1.023 1.024 1.025 SSE 6,6 30,6 0,0
03-04-2020 11,1     13,9     17,8 6,7 45 71 90 1.018 1.020 1.024 ESE 7,7 30,6 0,2
02-04-2020 11,7     13,1     16,2 4,5 66 81 90 1.014 1.016 1.019 NNW 7,4 41,8 1,4
01-04-2020 12,6     14,7     17,2 4,6 68 82 89 1.014 1.015 1.017 S 6,4 35,4 0,0
31-03-2020 10,2     13,5     18,3 8,1 66 79 90 1.012 1.014 1.017 O 11,4 41,8 0,8
30-03-2020 10,3     13,3     16,2 5,9 58 72 89 1.016 1.017 1.019 NNW 12,2 41,8 0,6
29-03-2020 10,4     14,4     18,3 7,9 45 62 75 1.018 1.021 1.024 SW 10,8 51,5 0,0
28-03-2020 9,7     12,4     16,5 6,8 47 65 82 1.020 1.022 1.024 NNW 7,4 35,4 0,2
27-03-2020 8,7     9,9     11,2 2,5 75 82 88 1.016 1.018 1.020 NNW 7,1 27,4 7,8 0,31 1,80
26-03-2020 8,8     11,8     15,6 6,8 44 70 86 1.011 1.014 1.019 NNW 10,0 45,1 0,0
25-03-2020 8,6     10,5     12,0 3,4 69 80 90 1.019 1.021 1.022 NW 6,4 33,8 5,0 0,28 0,70
24-03-2020 11,7     13,3     14,3 2,6 71 87 93 1.017 1.020 1.021 NNE 15,4 48,3 12,4 0,27 0,80
23-03-2020 11,4     14,1     16,3 4,9 82 87 93 1.017 1.020 1.021 ENE 9,2 46,7 14,0 0,39 2,80
22-03-2020 11,1     13,5     16,4 5,3 69 85 94 1.015 1.017 1.019 NNW 5,0 24,1 5,6 0,21 0,90
21-03-2020 12,1     13,2     14,1 2,0 80 86 94 1.016 1.018 1.021 NNW 6,3 32,2 3,0 0,20
20-03-2020 12,2     13,4     15,2 3,0 72 84 90 1.021 1.022 1.024 NNW 8,4 37,0 3,8 0,22 0,40
19-03-2020 12,8     14,4     16,8 4,0 66 80 89 1.024 1.026 1.029 NNW 10,1 33,8 0,0
18-03-2020 13,1     14,6     16,8 3,7 72 82 88 1.028 1.030 1.031 NNW 11,4 43,5 0,0
17-03-2020 10,8     13,3     16,2 5,4 80 90 95 1.024 1.027 1.031 NNW 8,5 46,7 9,6 0,33 0,60
16-03-2020 10,6     13,4     16,4 5,8 77 87 93 1.016 1.018 1.024 NNW 5,6 24,1 3,0
15-03-2020 11,8     14,5     16,8 5,0 75 84 92 1.019 1.022 1.025 NNW 6,0 27,4 0,0
14-03-2020 12,7     14,6     16,6 3,9 73 84 90 1.023 1.024 1.026 SSW 6,0 19,3 0,0
13-03-2020 13,9     16,1     19,4 5,5 58 71 82 1.021 1.022 1.024 NNW 9,5 37,0 0,0
12-03-2020 12,3     16,3     20,7 8,4 42 70 93 1.021 1.024 1.027 S 6,1 25,7 0,0
11-03-2020 12,5     15,4     19,1 6,6 61 77 93 1.026 1.027 1.029 S 5,3 27,4 0,0
10-03-2020 11,5     14,6     16,3 4,8 56 66 78 1.028 1.029 1.032 WSW 11,6 56,3 0,0
09-03-2020 13,6     17,5     20,4 6,8 34 46 75 1.024 1.026 1.028 NW 8,7 41,8 0,0
08-03-2020 11,3     15,1     18,2 6,9 46 62 74 1.025 1.027 1.029 WSW 8,9 40,2 0,0
07-03-2020 12,5     14,6     19,6 7,1 28 40 62 1.024 1.026 1.029 NW 18,5 59,5 0,0
06-03-2020 13,2     15,6     17,9 4,7 25 40 64 1.017 1.019 1.025 NW 15,4 72,4 0,0
Últims 13 mesos disponibles
03/2020 8,6 12,0 16,3 14,7 11,2 17,7 24,8 16,2 40 70 90 1.012 1.021 1.030 NNW 9,8 98,2 66,4
02/2020 7,9 11,9 15,7 15,0 13,9 18,2 24,1 16,2 45 71 92 1.019 1.030 1.037 WSW 6,7 54,7 1,0
01/2020 6,9 10,0 14,3 12,8 13,2 15,7 20,6 13,7 54 72 89 1.019 1.029 1.037 NNW 7,9 88,5 130,2
12/2019 8,3 12,3 16,5 14,8 13,4 17,5 22,3 14,0 41 71 88 1.009 1.023 1.037 NNW 7,4 86,9 71,6
11/2019 9,3 13,8 21,6 16,5 14,4 19,3 26,2 16,9 35 53 78 1.003 1.015 1.023 NW 10,8 95,0 13,8
10/2019 12,8 17,9 22,8 20,9 17,7 23,8 30,2 17,4 39 69 83 1.013 1.021 1.026 SSO 8,3 77,2 54,0
09/2019 15,6 21,0 24,6 23,7 23,0 26,5 29,9 14,3 56 76 85 1.014 1.022 1.027 SO 9,3 75,9 86,2
08/2019 19,6 23,1 25,7 26,1 27,0 29,2 35,3 15,7 59 76 88 1.015 1.020 1.024 S 8,0 50,0 14,2
07/2019 21,6 23,5 26,9 26,5 27,6 29,9 34,2 12,6 39 68 84 1.010 1.019 1.025 S 7,6 69,3 1,6
06/2019 15,2 18,9 24,5 22,6 22,3 26,1 34,8 19,6 40 68 84 1.013 1.020 1.027 S 8,6 59,6 0,2
05/2019 11,8 15,4 19,7 18,5 17,8 21,7 27,2 15,4 51 71 85 1.010 1.020 1.030 S 8,6 51,9 6,0
04/2019 9,8 12,9 15,0 15,6 14,3 18,4 24,8 15,0 46 70 93 1.004 1.017 1.030 SSO 9,0 70,9 74,0
03/2019 7,7 11,4 14,1 14,6 12,2 17,7 21,1 13,4 49 63 89 1.016 1.027 1.035 SSO 8,7 56,3 20,2
Tots els anys disponibles
2019 5,2 15,9 26,9 18,9 12,2 21,9 35,3 30,1 31 67 93 1.001 1.021 1.038 SSO 8,5 96,7 347,8
2018 3,9 16,0 27,3 18,9 9,4 21,9 33,0 29,1 37 69 92 998 1.020 1.038 SSO 7,9 101,9 370,0
Temperatura (°C)
Humitat relativa (%)
Velocitat del vent i ràfega màxima (km/h)
Direcció del vent (°)
Pressió (hPa)
Precipitació (mm)
Nota sobre les dades: s'avisa a l'usuari de la provisionalitat i no oficialitat d'aquestes dades
Logo AVAMET blanc
Web allotjada a Sollutia
Llicència de Creative CommonsLa web d'AVAMET i els seus continguts estan subjectes a una llicència de
Reconeixement - No Comercial - Compartir igual
Últimes estacions:  Altea - Com. Regants (Soci), Almoines (Inforatge), Beniparrell (Inforatge), Albal (Inforatge), Almussafes - Parc Industrial (Inforatge), La Vilavella (Soci), la Serratella (soci) - - -